createdAt,value
2018-10-12T00:00:41.418Z,55.75
2018-10-12T00:03:13.393Z,56.25
2018-10-12T00:05:49.688Z,56.30
2018-10-12T00:08:30.086Z,56.72
2018-10-12T00:11:00.253Z,56.28
2018-10-12T00:13:31.004Z,56.71
2018-10-12T00:16:00.753Z,57.28
2018-10-12T00:18:32.056Z,56.50
2018-10-12T00:21:01.911Z,56.99
2018-10-12T00:23:31.451Z,56.98
2018-10-12T00:26:01.670Z,56.43
2018-10-12T00:28:31.912Z,56.48
2018-10-12T00:31:02.343Z,55.71
2018-10-12T00:33:32.043Z,55.90
2018-10-12T00:36:01.628Z,56.33
2018-10-12T00:38:31.763Z,56.03
2018-10-12T00:41:01.602Z,56.31
2018-10-12T00:43:31.403Z,56.45
2018-10-12T00:46:08.000Z,56.86
2018-10-12T00:48:37.666Z,57.32
2018-10-12T00:51:07.109Z,56.82
2018-10-12T00:53:36.607Z,56.00
2018-10-12T00:56:06.012Z,55.84
2018-10-12T00:58:36.578Z,56.65
2018-10-12T01:01:07.319Z,56.59
2018-10-12T01:03:37.969Z,56.49
2018-10-12T01:06:07.778Z,56.52
2018-10-12T01:08:37.279Z,55.73
2018-10-12T01:11:06.924Z,56.44
2018-10-12T01:13:36.416Z,56.23
2018-10-12T01:16:06.205Z,56.40
2018-10-12T01:18:36.280Z,55.86
2018-10-12T01:21:06.410Z,56.62
2018-10-12T01:23:36.107Z,56.23
2018-10-12T01:26:05.691Z,56.03
2018-10-12T01:28:38.879Z,56.52
2018-10-12T01:31:10.175Z,56.37
2018-10-12T01:33:40.379Z,56.34
2018-10-12T01:36:10.575Z,57.27
2018-10-12T01:38:40.189Z,57.08
2018-10-12T01:43:48.017Z,56.16
2018-10-12T01:46:18.084Z,57.30
2018-10-12T01:48:47.933Z,56.93
2018-10-12T01:51:17.633Z,57.19
2018-10-12T01:53:47.468Z,56.58
2018-10-12T01:56:17.239Z,56.58
2018-10-12T01:58:47.004Z,56.75
2018-10-12T02:01:16.561Z,57.25
2018-10-12T02:03:51.839Z,57.11
2018-10-12T02:06:21.613Z,56.35
2018-10-12T02:08:51.224Z,56.87
2018-10-12T02:11:23.242Z,57.00
2018-10-12T02:13:53.300Z,56.75
2018-10-12T02:16:23.746Z,55.88
2018-10-12T02:18:53.753Z,56.25
2018-10-12T02:21:24.610Z,56.99
2018-10-12T02:23:54.470Z,56.02
2018-10-12T02:26:24.163Z,56.51
2018-10-12T02:28:54.614Z,56.70
2018-10-12T02:31:24.838Z,55.89
2018-10-12T02:33:54.465Z,56.90
2018-10-12T02:36:24.211Z,57.21
2018-10-12T02:38:53.777Z,56.95
2018-10-12T02:41:28.397Z,56.50
2018-10-12T02:43:58.956Z,56.57
2018-10-12T02:46:28.754Z,56.63
2018-10-12T02:48:59.482Z,56.06
2018-10-12T02:51:29.300Z,56.70
2018-10-12T02:53:58.718Z,56.74
2018-10-12T02:56:28.474Z,56.51
2018-10-12T02:58:58.238Z,56.37
2018-10-12T03:01:33.354Z,55.64
2018-10-12T03:04:02.748Z,55.93
2018-10-12T03:06:32.647Z,56.42
2018-10-12T03:09:02.037Z,56.23
2018-10-12T03:11:32.822Z,56.17
2018-10-12T03:14:02.640Z,56.24
2018-10-12T03:16:33.178Z,56.50
2018-10-12T03:19:03.016Z,57.14
2018-10-12T03:21:33.395Z,56.79
2018-10-12T03:24:03.157Z,56.34
2018-10-12T03:26:33.096Z,56.78
2018-10-12T03:29:03.728Z,55.88
2018-10-12T03:31:34.214Z,55.97
2018-10-12T03:34:03.874Z,56.30
2018-10-12T03:36:33.584Z,56.39
2018-10-12T03:39:03.832Z,56.87
2018-10-12T03:41:33.684Z,55.91
2018-10-12T03:44:03.185Z,56.31
2018-10-12T03:46:33.051Z,55.73
2018-10-12T03:49:02.629Z,56.69
2018-10-12T03:51:32.353Z,56.53
2018-10-12T03:54:02.777Z,56.67
2018-10-12T03:56:32.531Z,56.21
2018-10-12T03:59:04.248Z,56.44
2018-10-12T04:01:34.453Z,56.51
2018-10-12T04:04:04.435Z,55.74
2018-10-12T04:06:36.170Z,56.46
2018-10-12T04:09:07.078Z,56.37
2018-10-12T04:11:38.317Z,56.02
2018-10-12T04:14:08.082Z,55.88
2018-10-12T04:16:37.804Z,56.40
2018-10-12T04:19:12.770Z,56.15
2018-10-12T04:21:42.273Z,56.21
2018-10-12T04:24:12.250Z,56.73
2018-10-12T04:26:41.769Z,57.02
2018-10-12T04:29:11.968Z,56.62
2018-10-12T04:31:42.261Z,56.54
2018-10-12T04:34:14.368Z,57.76
2018-10-12T04:36:43.763Z,57.71
2018-10-12T04:39:26.574Z,57.00
2018-10-12T04:42:01.555Z,57.08
2018-10-12T04:44:31.375Z,57.57
2018-10-12T04:47:01.433Z,57.23
2018-10-12T04:49:31.016Z,57.29
2018-10-12T04:52:02.084Z,57.30
2018-10-12T04:54:34.167Z,56.62
2018-10-12T04:57:03.520Z,57.07
2018-10-12T04:59:33.949Z,57.67
2018-10-12T05:02:04.466Z,57.08
2018-10-12T05:04:35.147Z,57.46
2018-10-12T05:07:04.659Z,58.43
2018-10-12T05:09:34.273Z,58.44
2018-10-12T05:12:03.719Z,58.36
2018-10-12T05:14:33.095Z,57.70
2018-10-12T05:17:03.570Z,57.93
2018-10-12T05:19:34.031Z,58.15
2018-10-12T05:22:05.914Z,57.41
2018-10-12T05:24:35.456Z,58.03
2018-10-12T05:27:05.048Z,57.37
2018-10-12T05:29:34.570Z,58.12
2018-10-12T05:32:04.337Z,57.96
2018-10-12T05:34:37.834Z,58.07
2018-10-12T05:37:08.152Z,58.01
2018-10-12T05:39:38.265Z,58.50
2018-10-12T05:42:08.783Z,58.99
2018-10-12T05:44:42.744Z,59.28
2018-10-12T05:47:14.253Z,59.07
2018-10-12T05:50:15.225Z,58.87
2018-10-12T05:52:49.465Z,59.22
2018-10-12T05:55:18.925Z,59.34
2018-10-12T05:57:53.859Z,59.01
2018-10-12T06:00:33.297Z,58.21
2018-10-12T06:03:04.650Z,58.72
2018-10-12T06:05:34.721Z,57.87
2018-10-12T06:08:05.622Z,57.92
2018-10-12T06:10:45.595Z,57.88
2018-10-12T06:13:15.127Z,58.49
2018-10-12T06:15:46.591Z,58.11
2018-10-12T06:18:16.610Z,58.85
2018-10-12T06:20:46.238Z,58.33
2018-10-12T06:23:19.162Z,58.81
2018-10-12T06:25:49.013Z,57.86
2018-10-12T06:28:18.625Z,58.28
2018-10-12T06:30:50.141Z,58.45
2018-10-12T06:33:20.132Z,58.34
2018-10-12T06:36:00.564Z,58.23
2018-10-12T06:38:32.704Z,58.28
2018-10-12T06:41:04.959Z,58.14
2018-10-12T06:43:35.258Z,57.81
2018-10-12T06:46:12.175Z,57.21
2018-10-12T06:51:24.627Z,56.75
2018-10-12T06:53:54.027Z,56.40
2018-10-12T06:56:25.043Z,56.25
2018-10-12T06:58:54.907Z,56.39
2018-10-12T07:04:01.907Z,56.64
2018-10-12T07:06:32.249Z,55.63
2018-10-12T07:09:03.108Z,55.58
2018-10-12T07:11:32.872Z,55.92
2018-10-12T07:14:03.443Z,55.28
2018-10-12T07:16:36.355Z,53.76
2018-10-12T07:19:06.581Z,54.39
2018-10-12T07:21:36.918Z,54.24
2018-10-12T07:26:32.064Z,53.03
2018-10-12T07:31:28.864Z,51.45
2018-10-12T07:34:01.419Z,51.39
2018-10-12T07:36:32.626Z,50.31
2018-10-12T07:39:02.685Z,50.53
2018-10-12T07:41:34.468Z,51.83
2018-10-12T07:44:06.621Z,51.09
2018-10-12T07:46:36.463Z,50.99
2018-10-12T07:49:06.852Z,50.69
2018-10-12T07:51:36.269Z,49.92
2018-10-12T07:54:09.097Z,48.80
2018-10-12T07:56:39.204Z,48.39
2018-10-12T07:59:11.837Z,48.67
2018-10-12T08:01:49.555Z,47.07
2018-10-12T08:04:23.052Z,47.94
2018-10-12T08:06:59.247Z,47.86
2018-10-12T08:09:35.441Z,46.47
2018-10-12T08:12:23.942Z,47.17
2018-10-12T08:14:56.083Z,46.42
2018-10-12T08:17:29.191Z,46.36
2018-10-12T08:20:00.055Z,47.11
2018-10-12T08:22:30.644Z,46.64
2018-10-12T08:25:08.630Z,46.29
2018-10-12T08:27:40.366Z,45.68
2018-10-12T08:30:10.031Z,45.95
2018-10-12T08:32:40.664Z,46.19
2018-10-12T08:35:12.040Z,46.45
2018-10-12T08:37:41.604Z,46.26
2018-10-12T08:40:11.976Z,46.33
2018-10-12T08:42:42.315Z,46.70
2018-10-12T08:45:17.564Z,44.93
2018-10-12T08:47:48.537Z,44.64
2018-10-12T08:53:04.873Z,45.25
2018-10-12T08:55:34.799Z,44.31
2018-10-12T08:58:04.472Z,44.20
2018-10-12T09:00:35.704Z,44.37
2018-10-12T09:03:06.544Z,43.57
2018-10-12T09:05:36.215Z,41.67
2018-10-12T09:08:08.277Z,41.46
2018-10-12T09:10:41.217Z,42.92
2018-10-12T09:13:14.155Z,41.65
2018-10-12T09:15:44.055Z,41.14
2018-10-12T09:18:13.501Z,41.37
2018-10-12T09:20:43.018Z,40.20
2018-10-12T09:23:13.033Z,40.82
2018-10-12T09:25:43.751Z,40.19
2018-10-12T09:28:15.921Z,39.07
2018-10-12T09:30:45.885Z,38.75
2018-10-12T09:33:16.072Z,38.91
2018-10-12T09:35:47.442Z,37.84
2018-10-12T09:38:26.312Z,38.02
2018-10-12T09:40:55.805Z,36.65
2018-10-12T09:43:28.103Z,36.09
2018-10-12T09:45:57.867Z,35.15
2018-10-12T09:48:28.536Z,34.78
2018-10-12T09:51:00.501Z,34.90
2018-10-12T09:53:37.718Z,34.79
2018-10-12T09:56:10.166Z,34.44
2018-10-12T09:58:40.312Z,33.62
2018-10-12T10:01:16.131Z,32.90
2018-10-12T10:03:50.656Z,33.75
2018-10-12T10:06:22.307Z,33.94
2018-10-12T10:08:52.576Z,33.09
2018-10-12T10:11:22.158Z,33.08
2018-10-12T10:13:52.333Z,32.18
2018-10-12T10:16:22.344Z,31.92
2018-10-12T10:18:55.339Z,31.76
2018-10-12T10:21:26.081Z,31.74
2018-10-12T10:23:57.787Z,31.71
2018-10-12T10:26:38.068Z,31.94
2018-10-12T10:29:10.146Z,31.21
2018-10-12T10:31:40.272Z,31.40
2018-10-12T10:34:11.745Z,31.71
2018-10-12T10:36:45.988Z,32.06
2018-10-12T10:39:19.068Z,32.20
2018-10-12T10:41:50.049Z,31.40
2018-10-12T10:44:20.973Z,31.53
2018-10-12T10:46:53.698Z,31.76
2018-10-12T10:49:27.053Z,30.33
2018-10-12T10:51:57.811Z,30.80
2018-10-12T10:54:29.174Z,30.21
2018-10-12T10:59:32.639Z,30.96
2018-10-12T11:02:02.991Z,31.46
2018-10-12T11:04:34.639Z,31.32
2018-10-12T11:07:06.317Z,31.17
2018-10-12T11:09:39.643Z,30.94
2018-10-12T11:12:13.663Z,30.18
2018-10-12T11:14:43.279Z,31.79
2018-10-12T11:17:18.660Z,33.47
2018-10-12T11:19:48.941Z,33.01
2018-10-12T11:22:19.338Z,34.09
2018-10-12T11:24:49.188Z,33.19
2018-10-12T11:27:27.205Z,34.34
2018-10-12T11:29:57.626Z,33.04
2018-10-12T11:32:29.797Z,32.32
2018-10-12T11:35:01.225Z,32.64
2018-10-12T11:37:34.616Z,32.73
2018-10-12T11:40:05.773Z,32.84
2018-10-12T11:43:42.722Z,31.61
2018-10-12T11:46:14.012Z,32.15
2018-10-12T11:48:47.200Z,31.98
2018-10-12T11:51:21.951Z,31.53
2018-10-12T11:56:59.326Z,32.23
2018-10-12T11:59:32.357Z,32.53
2018-10-12T12:02:07.470Z,33.72
2018-10-12T12:04:37.395Z,35.06
2018-10-12T12:07:07.694Z,34.48
2018-10-12T12:09:39.747Z,34.71
2018-10-12T12:12:21.043Z,35.85
2018-10-12T12:14:51.371Z,35.71
2018-10-12T12:17:22.190Z,34.32
2018-10-12T12:20:00.052Z,34.09
2018-10-12T12:22:30.751Z,33.82
2018-10-12T12:25:05.642Z,33.83
2018-10-12T12:27:37.260Z,33.64
2018-10-12T12:30:21.858Z,33.98
2018-10-12T12:32:53.323Z,33.62
2018-10-12T12:35:23.569Z,32.81
2018-10-12T12:37:54.048Z,32.83
2018-10-12T12:40:28.269Z,32.16
2018-10-12T12:43:01.991Z,32.87
2018-10-12T12:45:32.807Z,33.07
2018-10-12T12:48:07.711Z,32.75
2018-10-12T12:50:40.237Z,32.78
2018-10-12T12:53:14.542Z,32.76
2018-10-12T12:55:46.979Z,31.63
2018-10-12T12:58:21.007Z,31.30
2018-10-12T13:00:52.264Z,31.41
2018-10-12T13:03:24.976Z,31.26
2018-10-12T13:05:54.788Z,31.23
2018-10-12T13:08:26.686Z,30.79
2018-10-12T13:11:01.625Z,30.98
2018-10-12T13:13:33.865Z,31.51
2018-10-12T13:16:14.591Z,32.98
2018-10-12T13:18:47.355Z,33.01
2018-10-12T13:21:16.825Z,32.67
2018-10-12T13:23:52.435Z,32.69
2018-10-12T13:26:36.308Z,33.28
2018-10-12T13:29:06.739Z,33.11
2018-10-12T13:31:38.662Z,32.63
2018-10-12T13:34:10.594Z,32.43
2018-10-12T13:36:44.933Z,32.27
2018-10-12T13:39:16.142Z,32.27
2018-10-12T13:41:52.021Z,31.74
2018-10-12T13:44:26.535Z,31.59
2018-10-12T13:46:57.801Z,31.97
2018-10-12T13:49:27.548Z,32.25
2018-10-12T13:51:57.352Z,32.03
2018-10-12T13:54:29.012Z,32.30
2018-10-12T13:57:03.140Z,31.63
2018-10-12T13:59:35.241Z,32.10
2018-10-12T14:02:07.901Z,32.43
2018-10-12T14:04:37.748Z,32.39
2018-10-12T14:07:10.435Z,32.56
2018-10-12T14:09:44.204Z,31.84
2018-10-12T14:12:18.965Z,32.38
2018-10-12T14:14:49.180Z,32.33
2018-10-12T14:17:20.459Z,31.99
2018-10-12T14:19:51.228Z,32.39
2018-10-12T14:22:22.794Z,33.03
2018-10-12T14:24:55.870Z,32.86
2018-10-12T14:27:27.693Z,33.03
2018-10-12T14:29:58.354Z,32.86
2018-10-12T14:32:28.192Z,33.44
2018-10-12T14:34:58.875Z,33.69
2018-10-12T14:37:35.931Z,33.56
2018-10-12T14:40:05.989Z,33.74
2018-10-12T14:42:35.521Z,33.94
2018-10-12T14:45:09.660Z,34.42
2018-10-12T14:47:42.765Z,33.91
2018-10-12T14:50:22.011Z,34.16
2018-10-12T14:52:56.514Z,34.57
2018-10-12T14:55:28.028Z,34.14
2018-10-12T14:58:00.721Z,33.96
2018-10-12T15:00:30.937Z,33.83
2018-10-12T15:03:01.251Z,34.13
2018-10-12T15:05:34.544Z,34.33
2018-10-12T15:08:04.169Z,33.95
2018-10-12T15:10:36.291Z,34.02
2018-10-12T15:15:38.610Z,33.57
2018-10-12T15:18:12.698Z,33.89
2018-10-12T15:20:42.675Z,33.77
2018-10-12T15:23:12.920Z,34.38
2018-10-12T15:25:43.573Z,34.23
2018-10-12T15:28:18.222Z,34.25
2018-10-12T15:30:50.772Z,34.07
2018-10-12T15:33:20.345Z,34.11
2018-10-12T15:35:50.424Z,34.33
2018-10-12T15:38:20.494Z,34.93
2018-10-12T15:40:52.304Z,34.42
2018-10-12T15:43:21.789Z,34.97
2018-10-12T15:45:57.865Z,35.59
2018-10-12T15:48:32.102Z,35.86
2018-10-12T15:51:01.981Z,35.61
2018-10-12T15:53:32.552Z,35.72
2018-10-12T15:56:03.737Z,36.05
2018-10-12T15:58:34.894Z,35.56
2018-10-12T16:01:05.677Z,35.85
2018-10-12T16:03:36.019Z,36.56
2018-10-12T16:06:08.245Z,36.36
2018-10-12T16:08:39.356Z,35.86
2018-10-12T16:11:10.092Z,36.39
2018-10-12T16:13:44.939Z,36.92
2018-10-12T16:16:16.737Z,36.88
2018-10-12T16:18:46.328Z,37.41
2018-10-12T16:21:17.129Z,37.81
2018-10-12T16:23:52.028Z,37.80
2018-10-12T16:26:23.670Z,37.27
2018-10-12T16:28:54.557Z,37.68
2018-10-12T16:31:24.836Z,38.70
2018-10-12T16:33:54.735Z,38.80
2018-10-12T16:36:24.106Z,39.15
2018-10-12T16:38:56.096Z,39.16
2018-10-12T16:41:25.514Z,38.61
2018-10-12T16:43:54.892Z,39.31
2018-10-12T16:46:24.997Z,39.42
2018-10-12T16:48:57.500Z,38.94
2018-10-12T16:51:31.919Z,38.99
2018-10-12T16:54:07.646Z,39.00
2018-10-12T16:56:43.753Z,39.84
2018-10-12T16:59:15.310Z,39.48
2018-10-12T17:01:45.919Z,39.94
2018-10-12T17:04:17.107Z,39.95
2018-10-12T17:06:47.292Z,40.02
2018-10-12T17:09:22.235Z,39.38
2018-10-12T17:11:52.557Z,39.71
2018-10-12T17:14:23.202Z,40.76
2018-10-12T17:16:56.426Z,40.48
2018-10-12T17:19:26.792Z,40.30
2018-10-12T17:21:58.461Z,40.07
2018-10-12T17:24:29.310Z,40.20
2018-10-12T17:26:59.383Z,40.07
2018-10-12T17:29:31.011Z,40.96
2018-10-12T17:32:02.669Z,40.89
2018-10-12T17:34:35.111Z,40.85
2018-10-12T17:37:07.007Z,41.34
2018-10-12T17:39:36.430Z,40.68
2018-10-12T17:42:13.397Z,41.50
2018-10-12T17:44:58.145Z,41.28
2018-10-12T17:47:29.691Z,42.17
2018-10-12T17:50:07.344Z,42.47
2018-10-12T17:52:39.599Z,42.17
2018-10-12T17:55:17.599Z,42.38
2018-10-12T17:57:50.461Z,42.95
2018-10-12T18:00:31.219Z,42.92
2018-10-12T18:03:04.344Z,42.84
2018-10-12T18:05:35.585Z,43.31
2018-10-12T18:08:06.503Z,43.12
2018-10-12T18:10:37.858Z,43.95
2018-10-12T18:13:11.342Z,43.78
2018-10-12T18:15:46.607Z,44.43
2018-10-12T18:18:17.667Z,43.92
2018-10-12T18:20:49.317Z,44.57
2018-10-12T18:23:18.793Z,44.00
2018-10-12T18:25:50.079Z,44.50
2018-10-12T18:28:20.578Z,44.24
2018-10-12T18:30:52.632Z,44.34
2018-10-12T18:33:23.811Z,44.36
2018-10-12T18:35:55.832Z,45.28
2018-10-12T18:38:25.880Z,45.15
2018-10-12T18:41:03.316Z,44.43
2018-10-12T18:43:33.435Z,44.36
2018-10-12T18:46:05.161Z,44.44
2018-10-12T18:48:35.356Z,44.21
2018-10-12T18:51:10.956Z,45.01
2018-10-12T18:53:44.245Z,44.54
2018-10-12T18:56:18.646Z,43.98
2018-10-12T18:58:50.712Z,44.93
2018-10-12T19:01:22.101Z,43.63
2018-10-12T19:03:54.175Z,43.45
2018-10-12T19:06:28.906Z,44.46
2018-10-12T19:09:05.615Z,44.18
2018-10-12T19:11:55.063Z,44.12
2018-10-12T19:14:25.748Z,44.17
2018-10-12T19:16:56.598Z,45.00
2018-10-12T19:19:40.768Z,44.60
2018-10-12T19:22:18.467Z,44.89
2018-10-12T19:24:58.241Z,45.02
2018-10-12T19:27:39.426Z,45.32
2018-10-12T19:30:17.689Z,45.85
2018-10-12T19:32:59.740Z,45.31
2018-10-12T19:35:30.769Z,46.21
2018-10-12T19:38:15.468Z,46.33
2018-10-12T19:40:49.429Z,46.54
2018-10-12T19:43:20.545Z,45.93
2018-10-12T19:45:52.905Z,46.42
2018-10-12T19:48:39.634Z,46.47
2018-10-12T19:51:11.313Z,47.15
2018-10-12T19:56:15.673Z,48.27
2018-10-12T19:58:53.572Z,47.71
2018-10-12T20:01:32.244Z,48.53
2018-10-12T20:04:02.555Z,48.02
2018-10-12T20:06:35.142Z,48.68
2018-10-12T20:09:12.856Z,48.96
2018-10-12T20:11:52.944Z,48.75
2018-10-12T20:14:24.078Z,49.22
2018-10-12T20:16:59.326Z,48.66
2018-10-12T20:19:29.350Z,49.55
2018-10-12T20:22:00.604Z,48.94
2018-10-12T20:24:31.436Z,48.95
2018-10-12T20:27:02.593Z,49.30
2018-10-12T20:29:32.278Z,49.43
2018-10-12T20:32:06.627Z,49.51
2018-10-12T20:34:45.452Z,49.78
2018-10-12T20:37:20.346Z,50.74
2018-10-12T20:39:50.782Z,49.82
2018-10-12T20:42:21.731Z,50.20
2018-10-12T20:44:52.285Z,51.30
2018-10-12T20:47:28.444Z,50.31
2018-10-12T20:49:59.989Z,50.85
2018-10-12T20:52:33.142Z,50.70
2018-10-12T20:55:03.358Z,51.62
2018-10-12T20:57:34.842Z,50.70
2018-10-12T21:00:08.497Z,51.77
2018-10-12T21:02:40.576Z,51.27
2018-10-12T21:05:11.959Z,50.66
2018-10-12T21:07:41.689Z,51.46
2018-10-12T21:10:12.638Z,52.04
2018-10-12T21:12:45.920Z,51.31
2018-10-12T21:15:17.229Z,51.82
2018-10-12T21:17:47.440Z,51.99
2018-10-12T21:20:17.317Z,51.97
2018-10-12T21:22:51.073Z,52.43
2018-10-12T21:25:23.059Z,51.72
2018-10-12T21:27:58.423Z,52.29
2018-10-12T21:30:31.014Z,51.53
2018-10-12T21:33:02.896Z,51.80
2018-10-12T21:35:33.521Z,51.74
2018-10-12T21:38:05.372Z,51.79
2018-10-12T21:40:36.775Z,51.33
2018-10-12T21:43:11.465Z,51.74
2018-10-12T21:45:42.158Z,51.98
2018-10-12T21:48:13.880Z,52.33
2018-10-12T21:50:43.374Z,51.87
2018-10-12T21:53:13.422Z,51.52
2018-10-12T21:55:43.870Z,51.64
2018-10-12T21:58:13.847Z,51.15
2018-10-12T22:00:46.715Z,51.99
2018-10-12T22:03:17.238Z,51.65
2018-10-12T22:05:54.703Z,51.27
2018-10-12T22:17:10.295Z,51.83
2018-10-12T22:19:50.598Z,51.35
2018-10-12T22:22:31.903Z,52.22
2018-10-12T22:25:01.686Z,51.87
2018-10-12T22:27:36.965Z,52.20
2018-10-12T22:30:22.766Z,52.25
2018-10-12T22:32:53.878Z,51.54
2018-10-12T22:35:24.406Z,52.05
2018-10-12T22:37:53.971Z,51.31
2018-10-12T22:40:23.992Z,51.85
2018-10-12T22:42:55.747Z,51.59
2018-10-12T22:45:29.334Z,52.48
2018-10-12T22:47:59.713Z,52.92
2018-10-12T22:50:31.911Z,52.41
2018-10-12T22:53:02.242Z,51.61
2018-10-12T22:55:32.407Z,51.17
2018-10-12T22:58:04.382Z,51.74
2018-10-12T23:00:38.432Z,52.21
2018-10-12T23:03:11.064Z,52.43
2018-10-12T23:05:56.603Z,52.30
2018-10-12T23:08:28.035Z,52.29
2018-10-12T23:11:03.196Z,52.52
2018-10-12T23:13:33.739Z,52.26
2018-10-12T23:16:04.349Z,53.03
2018-10-12T23:18:52.447Z,52.48
2018-10-12T23:21:24.046Z,52.51
2018-10-12T23:23:54.491Z,52.16
2018-10-12T23:26:24.803Z,52.94
2018-10-12T23:28:58.262Z,51.87
2018-10-12T23:31:32.239Z,52.79
2018-10-12T23:34:12.646Z,52.79
2018-10-12T23:36:44.098Z,52.29
2018-10-12T23:41:53.601Z,52.95
2018-10-12T23:44:28.389Z,52.78
2018-10-12T23:47:01.724Z,52.25
2018-10-12T23:49:35.123Z,53.18
2018-10-12T23:54:45.947Z,52.89
2018-10-12T23:57:18.549Z,52.49
2018-10-12T23:59:52.338Z,52.29
